RJA111 OJAI-EGLL
Flight info
| Callsign | RJA111 |
|---|---|
| Flight time | N/A |
| Altitude | 40000 |
| Route | MUVIN L53 SUVAS N128 OTHON DCT VAXOS UN128 RDS UL609 MES DCT DISOR DCT LONTA UL608 DOLEV DCT AGLIB DCT ZAG DCT BEDOX DCT NEMAL DCT SIMBA DCT MAMOR DCT INBED DCT BOMBI DCT ADKUV DCT SOGRI DCT DENUT L608 LOGAN |
| Aircraft | B788/H-SDE1E2E3FGHIJ2J3J4J5M1RWXY/LB1D1 |
Departure
| Time | 2026-05-07 14:18 |
|---|---|
| Airport | Queen Alia International Airport (OJAI) |
Arrival
| Time | N/A |
|---|---|
| Airport | London Heathrow Airport (EGLL) |
| Time | Latitude | Longitude | Altitude | Speed | Heading |
|---|---|---|---|---|---|
| 2026-05-07 14:04 | 31.72594 | 35.99013 | 2421 ft | 0 kts | 350° |
| 2026-05-07 14:10 | 31.72519 | 35.99032 | 2424 ft | 0 kts | 278° |
| 2026-05-07 14:12 | 31.72532 | 35.98951 | 2423 ft | 14 kts | 295° |
| 2026-05-07 14:12 | 31.72584 | 35.98920 | 2420 ft | 8 kts | 348° |
| 2026-05-07 14:12 | 31.72639 | 35.98901 | 2421 ft | 8 kts | 320° |
| 2026-05-07 14:12 | 31.72656 | 35.98866 | 2422 ft | 0 kts | 285° |
| 2026-05-07 14:13 | 31.72656 | 35.98864 | 2422 ft | 0 kts | 296° |
| 2026-05-07 14:13 | 31.72674 | 35.98861 | 2420 ft | 11 kts | 30° |
| 2026-05-07 14:13 | 31.72695 | 35.99004 | 2424 ft | 18 kts | 85° |
| 2026-05-07 14:13 | 31.72714 | 35.99151 | 2421 ft | 18 kts | 77° |
| 2026-05-07 14:14 | 31.72735 | 35.99295 | 2422 ft | 18 kts | 81° |
| 2026-05-07 14:14 | 31.72755 | 35.99437 | 2421 ft | 17 kts | 78° |
| 2026-05-07 14:14 | 31.72775 | 35.99575 | 2423 ft | 17 kts | 81° |
| 2026-05-07 14:14 | 31.72795 | 35.99711 | 2420 ft | 17 kts | 80° |
| 2026-05-07 14:15 | 31.72803 | 35.99767 | 2422 ft | 1 kts | 78° |
| 2026-05-07 14:15 | 31.72807 | 35.99789 | 2422 ft | 5 kts | 80° |
| 2026-05-07 14:15 | 31.72816 | 35.99854 | 2423 ft | 11 kts | 80° |
| 2026-05-07 14:15 | 31.72831 | 35.99962 | 2423 ft | 16 kts | 81° |
| 2026-05-07 14:16 | 31.72855 | 36.00113 | 2421 ft | 21 kts | 77° |
| 2026-05-07 14:16 | 31.72884 | 36.00300 | 2422 ft | 26 kts | 80° |
| 2026-05-07 14:16 | 31.72918 | 36.00529 | 2424 ft | 30 kts | 80° |
| 2026-05-07 14:16 | 31.72962 | 36.00775 | 2421 ft | 24 kts | 58° |
| 2026-05-07 14:17 | 31.73077 | 36.00791 | 2422 ft | 17 kts | 343° |
| 2026-05-07 14:17 | 31.73187 | 36.00750 | 2421 ft | 15 kts | 322° |
| 2026-05-07 14:17 | 31.73206 | 36.00625 | 2422 ft | 34 kts | 262° |
| 2026-05-07 14:17 | 31.73117 | 36.00013 | 2422 ft | 117 kts | 259° |
| 2026-05-07 14:18 | 31.72914 | 35.98815 | 2646 ft | 171 kts | 266° |
| 2026-05-07 14:18 | 31.72788 | 35.97355 | 3500 ft | 184 kts | 268° |
| 2026-05-07 14:18 | 31.72639 | 35.95834 | 4293 ft | 197 kts | 269° |
| 2026-05-07 14:18 | 31.73061 | 35.94174 | 4684 ft | 231 kts | 294° |
| 2026-05-07 14:19 | 31.73696 | 35.92310 | 5216 ft | 259 kts | 287° |
| 2026-05-07 14:19 | 31.74132 | 35.90226 | 6217 ft | 265 kts | 280° |
| 2026-05-07 14:19 | 31.74489 | 35.88069 | 7212 ft | 272 kts | 280° |
| 2026-05-07 14:19 | 31.74891 | 35.85891 | 8306 ft | 274 kts | 281° |
| 2026-05-07 14:20 | 31.75325 | 35.83700 | 9393 ft | 277 kts | 281° |
| 2026-05-07 14:20 | 31.75759 | 35.81470 | 10394 ft | 281 kts | 281° |
| 2026-05-07 14:20 | 31.76188 | 35.79217 | 11370 ft | 284 kts | 281° |
| 2026-05-07 14:20 | 31.76623 | 35.76933 | 12357 ft | 287 kts | 281° |
| 2026-05-07 14:21 | 31.77063 | 35.74630 | 13317 ft | 291 kts | 281° |
| 2026-05-07 14:21 | 31.77510 | 35.72295 | 14232 ft | 295 kts | 281° |
| 2026-05-07 14:21 | 31.77961 | 35.69934 | 15108 ft | 298 kts | 281° |
| 2026-05-07 14:21 | 31.78417 | 35.67536 | 15928 ft | 302 kts | 282° |
| 2026-05-07 14:22 | 31.78885 | 35.65116 | 16777 ft | 306 kts | 284° |
| 2026-05-07 14:22 | 31.79519 | 35.62674 | 17067 ft | 330 kts | 286° |
| 2026-05-07 14:22 | 31.80208 | 35.59981 | 17114 ft | 358 kts | 286° |
| 2026-05-07 14:22 | 31.80945 | 35.57074 | 17390 ft | 377 kts | 286° |
| 2026-05-07 14:23 | 31.81707 | 35.54117 | 18294 ft | 380 kts | 287° |
| 2026-05-07 14:23 | 31.82481 | 35.51125 | 18972 ft | 384 kts | 287° |
| 2026-05-07 14:23 | 31.83364 | 35.48155 | 19668 ft | 387 kts | 289° |
| 2026-05-07 14:23 | 31.84258 | 35.45153 | 20382 ft | 390 kts | 289° |
| 2026-05-07 14:24 | 31.85137 | 35.42130 | 21110 ft | 392 kts | 289° |
| 2026-05-07 14:24 | 31.86047 | 35.39095 | 21760 ft | 395 kts | 289° |
| 2026-05-07 14:24 | 31.86975 | 35.36036 | 22456 ft | 398 kts | 289° |
| 2026-05-07 14:24 | 31.87897 | 35.32959 | 23095 ft | 401 kts | 289° |
| 2026-05-07 14:25 | 31.88819 | 35.29853 | 23719 ft | 403 kts | 289° |
| 2026-05-07 14:25 | 31.89750 | 35.26722 | 24249 ft | 406 kts | 289° |
| 2026-05-07 14:25 | 31.90690 | 35.23580 | 24765 ft | 408 kts | 289° |
| 2026-05-07 14:25 | 31.91630 | 35.20410 | 25261 ft | 411 kts | 289° |
| 2026-05-07 14:26 | 31.92567 | 35.17221 | 25766 ft | 413 kts | 289° |
| 2026-05-07 14:26 | 31.93509 | 35.14018 | 26244 ft | 416 kts | 289° |
| 2026-05-07 14:26 | 31.94465 | 35.10788 | 26732 ft | 418 kts | 289° |
| 2026-05-07 14:26 | 31.95427 | 35.07543 | 27178 ft | 421 kts | 289° |
| 2026-05-07 14:27 | 31.96392 | 35.04280 | 27625 ft | 423 kts | 289° |
| 2026-05-07 14:27 | 31.97359 | 35.00995 | 28063 ft | 426 kts | 289° |
| 2026-05-07 14:27 | 31.98333 | 34.97688 | 28499 ft | 428 kts | 289° |
| 2026-05-07 14:27 | 31.99309 | 34.94367 | 28924 ft | 431 kts | 289° |
| 2026-05-07 14:28 | 32.00290 | 34.91024 | 29341 ft | 433 kts | 288° |
| 2026-05-07 14:28 | 32.01142 | 34.87612 | 29741 ft | 435 kts | 281° |
| 2026-05-07 14:28 | 32.01505 | 34.84072 | 30104 ft | 437 kts | 274° |
| 2026-05-07 14:28 | 32.01709 | 34.80482 | 30421 ft | 440 kts | 274° |
| 2026-05-07 14:29 | 32.01912 | 34.76877 | 30744 ft | 442 kts | 274° |
| 2026-05-07 14:29 | 32.02110 | 34.73301 | 31048 ft | 444 kts | 274° |
| 2026-05-07 14:29 | 32.02309 | 34.69664 | 31343 ft | 446 kts | 274° |
| 2026-05-07 14:29 | 32.02511 | 34.66013 | 31628 ft | 448 kts | 274° |
| 2026-05-07 14:30 | 32.02713 | 34.62333 | 31910 ft | 450 kts | 274° |
| 2026-05-07 14:30 | 32.02913 | 34.58643 | 32186 ft | 452 kts | 274° |
| 2026-05-07 14:30 | 32.03111 | 34.54935 | 32457 ft | 454 kts | 274° |
| 2026-05-07 14:30 | 32.03310 | 34.51211 | 32710 ft | 456 kts | 274° |
| 2026-05-07 14:31 | 32.03521 | 34.47471 | 32969 ft | 458 kts | 275° |
| 2026-05-07 14:31 | 32.03740 | 34.43718 | 33203 ft | 460 kts | 275° |
| 2026-05-07 14:31 | 32.03954 | 34.39949 | 33512 ft | 461 kts | 274° |
| 2026-05-07 14:31 | 32.04160 | 34.36186 | 33868 ft | 460 kts | 274° |
| 2026-05-07 14:32 | 32.04367 | 34.32424 | 34193 ft | 459 kts | 275° |
| 2026-05-07 14:32 | 32.04577 | 34.28668 | 34463 ft | 459 kts | 275° |
| 2026-05-07 14:32 | 32.05012 | 34.24942 | 34742 ft | 458 kts | 284° |
| 2026-05-07 14:32 | 32.05971 | 34.21362 | 35003 ft | 458 kts | 293° |
| 2026-05-07 14:33 | 32.07421 | 34.18018 | 35253 ft | 459 kts | 300° |
| 2026-05-07 14:33 | 32.09061 | 34.14776 | 35480 ft | 460 kts | 300° |
| 2026-05-07 14:33 | 32.10702 | 34.11545 | 35750 ft | 460 kts | 300° |
| 2026-05-07 14:33 | 32.12352 | 34.08311 | 36007 ft | 460 kts | 300° |
| 2026-05-07 14:34 | 32.14001 | 34.05065 | 36273 ft | 460 kts | 300° |
| 2026-05-07 14:34 | 32.15646 | 34.01816 | 36541 ft | 460 kts | 300° |
| 2026-05-07 14:34 | 32.17328 | 33.98607 | 36793 ft | 460 kts | 304° |
| 2026-05-07 14:34 | 32.19194 | 33.95527 | 37021 ft | 461 kts | 304° |
| 2026-05-07 14:35 | 32.21056 | 33.92448 | 37277 ft | 461 kts | 304° |
| 2026-05-07 14:35 | 32.22914 | 33.89361 | 37528 ft | 461 kts | 304° |
| 2026-05-07 14:35 | 32.24771 | 33.86273 | 37776 ft | 461 kts | 304° |
| 2026-05-07 14:35 | 32.26611 | 33.83217 | 38031 ft | 461 kts | 304° |
| 2026-05-07 14:36 | 32.28469 | 33.80130 | 38276 ft | 461 kts | 304° |
| 2026-05-07 14:36 | 32.30327 | 33.77038 | 38540 ft | 461 kts | 303° |
| 2026-05-07 14:36 | 32.32183 | 33.73944 | 38770 ft | 461 kts | 303° |
| 2026-05-07 14:36 | 32.34039 | 33.70850 | 38968 ft | 461 kts | 303° |
| 2026-05-07 14:37 | 32.35292 | 33.68761 | 39104 ft | 461 kts | 303° |
| 2026-05-07 14:37 | 32.38971 | 33.62618 | 39489 ft | 460 kts | 303° |
| 2026-05-07 14:37 | 32.40823 | 33.59521 | 39685 ft | 460 kts | 303° |
| 2026-05-07 14:38 | 32.42672 | 33.56427 | 39851 ft | 461 kts | 303° |
| 2026-05-07 14:38 | 32.44528 | 33.53318 | 40014 ft | 462 kts | 303° |
| 2026-05-07 14:38 | 32.48256 | 33.47067 | 40078 ft | 466 kts | 303° |
| 2026-05-07 14:39 | 32.51955 | 33.40855 | 40080 ft | 462 kts | 303° |
| 2026-05-07 14:39 | 32.55648 | 33.34642 | 40082 ft | 460 kts | 303° |
| 2026-05-07 14:40 | 32.59333 | 33.28432 | 40081 ft | 459 kts | 303° |
| 2026-05-07 14:40 | 32.63007 | 33.22231 | 40080 ft | 459 kts | 304° |
| 2026-05-07 14:41 | 32.66676 | 33.16028 | 40085 ft | 459 kts | 304° |
| 2026-05-07 14:41 | 32.70337 | 33.09828 | 40085 ft | 458 kts | 304° |
| 2026-05-07 14:42 | 32.73989 | 33.03632 | 40085 ft | 458 kts | 304° |
| 2026-05-07 14:42 | 32.77618 | 32.97467 | 40090 ft | 458 kts | 304° |
| 2026-05-07 14:43 | 32.81264 | 32.91262 | 40087 ft | 458 kts | 304° |
| 2026-05-07 14:43 | 32.84907 | 32.85051 | 40094 ft | 458 kts | 304° |
| 2026-05-07 14:44 | 32.88554 | 32.78823 | 40095 ft | 458 kts | 304° |
| 2026-05-07 14:44 | 32.92191 | 32.72603 | 40096 ft | 458 kts | 304° |
| 2026-05-07 14:45 | 32.95826 | 32.66374 | 40102 ft | 458 kts | 304° |
| 2026-05-07 14:45 | 32.99452 | 32.60152 | 40102 ft | 457 kts | 304° |
| 2026-05-07 14:46 | 33.03069 | 32.53934 | 40105 ft | 457 kts | 304° |
| 2026-05-07 14:46 | 33.06684 | 32.47709 | 40109 ft | 456 kts | 304° |
| 2026-05-07 14:47 | 33.10288 | 32.41493 | 40111 ft | 456 kts | 304° |
| 2026-05-07 14:47 | 33.13892 | 32.35267 | 40108 ft | 455 kts | 304° |
| 2026-05-07 14:48 | 33.17464 | 32.29085 | 40110 ft | 455 kts | 304° |
| 2026-05-07 14:48 | 33.21049 | 32.22870 | 40113 ft | 454 kts | 304° |
| 2026-05-07 14:49 | 33.24624 | 32.16662 | 40116 ft | 454 kts | 304° |
| 2026-05-07 14:49 | 33.28198 | 32.10446 | 40119 ft | 454 kts | 304° |
| 2026-05-07 14:50 | 33.31768 | 32.04227 | 40116 ft | 454 kts | 304° |
| 2026-05-07 14:50 | 33.35335 | 31.98000 | 40118 ft | 453 kts | 304° |
| 2026-05-07 14:51 | 33.38892 | 31.91781 | 40120 ft | 453 kts | 304° |
| 2026-05-07 14:51 | 33.42443 | 31.85565 | 40126 ft | 452 kts | 304° |
| 2026-05-07 14:52 | 33.45988 | 31.79346 | 40125 ft | 451 kts | 304° |
| 2026-05-07 14:52 | 33.49498 | 31.73178 | 40123 ft | 451 kts | 304° |
| 2026-05-07 14:53 | 33.53027 | 31.66969 | 40126 ft | 450 kts | 304° |
| 2026-05-07 14:53 | 33.56542 | 31.60773 | 40126 ft | 449 kts | 304° |
| 2026-05-07 14:54 | 33.60044 | 31.54588 | 40122 ft | 448 kts | 305° |
| 2026-05-07 14:54 | 33.63548 | 31.48391 | 40126 ft | 448 kts | 305° |
| 2026-05-07 14:55 | 33.67043 | 31.42197 | 40129 ft | 448 kts | 305° |
| 2026-05-07 14:55 | 33.70514 | 31.36038 | 40130 ft | 447 kts | 305° |
| 2026-05-07 14:56 | 33.73994 | 31.29849 | 40131 ft | 447 kts | 305° |
| 2026-05-07 14:56 | 33.77474 | 31.23654 | 40135 ft | 447 kts | 305° |
| 2026-05-07 14:57 | 33.80949 | 31.17453 | 40132 ft | 447 kts | 305° |
| 2026-05-07 14:57 | 33.84420 | 31.11251 | 40136 ft | 447 kts | 305° |
| 2026-05-07 14:58 | 33.87884 | 31.05051 | 40133 ft | 446 kts | 305° |
| 2026-05-07 14:58 | 33.91343 | 30.98849 | 40135 ft | 445 kts | 305° |
| 2026-05-07 14:59 | 33.94766 | 30.92701 | 40132 ft | 444 kts | 305° |
| 2026-05-07 14:59 | 33.98204 | 30.86514 | 40130 ft | 445 kts | 305° |
| 2026-05-07 15:00 | 34.01643 | 30.80316 | 40136 ft | 445 kts | 305° |
| 2026-05-07 15:00 | 34.05076 | 30.74115 | 40138 ft | 444 kts | 305° |
| 2026-05-07 15:01 | 34.08502 | 30.67920 | 40132 ft | 443 kts | 305° |
| 2026-05-07 15:01 | 34.11916 | 30.61734 | 40133 ft | 443 kts | 305° |
| 2026-05-07 15:02 | 34.15332 | 30.55535 | 40137 ft | 444 kts | 305° |
| 2026-05-07 15:02 | 34.18749 | 30.49322 | 40142 ft | 444 kts | 305° |
| 2026-05-07 15:03 | 34.22138 | 30.43150 | 40143 ft | 443 kts | 305° |
| 2026-05-07 15:03 | 34.25539 | 30.36945 | 40143 ft | 442 kts | 305° |
| 2026-05-07 15:04 | 34.28931 | 30.30746 | 40144 ft | 441 kts | 305° |
| 2026-05-07 15:04 | 34.32308 | 30.24563 | 40144 ft | 440 kts | 305° |
| 2026-05-07 15:05 | 34.35605 | 30.18518 | 40144 ft | 439 kts | 305° |
| 2026-05-07 15:05 | 34.38968 | 30.12339 | 40148 ft | 438 kts | 305° |
| 2026-05-07 15:06 | 34.42291 | 30.06225 | 40146 ft | 437 kts | 304° |
| 2026-05-07 15:06 | 34.45693 | 30.00150 | 40159 ft | 434 kts | 310° |
| 2026-05-07 15:07 | 34.49863 | 29.94848 | 40146 ft | 435 kts | 314° |
| 2026-05-07 15:07 | 34.54103 | 29.89617 | 40144 ft | 434 kts | 314° |
| 2026-05-07 15:08 | 34.58339 | 29.84398 | 40150 ft | 434 kts | 314° |
| 2026-05-07 15:08 | 34.62570 | 29.79169 | 40151 ft | 433 kts | 314° |
| 2026-05-07 15:09 | 34.66787 | 29.73953 | 40148 ft | 432 kts | 314° |
| 2026-05-07 15:09 | 34.70966 | 29.68774 | 40148 ft | 432 kts | 314° |
| 2026-05-07 15:10 | 34.75171 | 29.63556 | 40146 ft | 432 kts | 314° |
| 2026-05-07 15:10 | 34.79372 | 29.58334 | 40147 ft | 432 kts | 314° |
| 2026-05-07 15:11 | 34.83578 | 29.53099 | 40147 ft | 432 kts | 314° |
| 2026-05-07 15:11 | 34.87781 | 29.47859 | 40148 ft | 432 kts | 314° |
| 2026-05-07 15:12 | 34.91985 | 29.42608 | 40148 ft | 432 kts | 314° |
| 2026-05-07 15:12 | 34.96151 | 29.37397 | 40143 ft | 432 kts | 314° |
| 2026-05-07 15:13 | 35.00505 | 29.32355 | 40147 ft | 433 kts | 323° |
| 2026-05-07 15:13 | 35.05334 | 29.27959 | 40138 ft | 433 kts | 322° |
| 2026-05-07 15:14 | 35.10157 | 29.23557 | 40144 ft | 433 kts | 322° |
| 2026-05-07 15:14 | 35.14980 | 29.19153 | 40143 ft | 433 kts | 322° |
| 2026-05-07 15:15 | 35.19802 | 29.14740 | 40142 ft | 432 kts | 322° |
| 2026-05-07 15:15 | 35.24613 | 29.10332 | 40143 ft | 432 kts | 322° |
| 2026-05-07 15:16 | 35.29438 | 29.05904 | 40141 ft | 434 kts | 322° |
| 2026-05-07 15:16 | 35.34272 | 29.01462 | 40144 ft | 435 kts | 322° |
| 2026-05-07 15:17 | 35.39116 | 28.97002 | 40141 ft | 435 kts | 322° |
| 2026-05-07 15:17 | 35.43943 | 28.92552 | 40141 ft | 433 kts | 322° |
| 2026-05-07 15:18 | 35.48753 | 28.88111 | 40140 ft | 433 kts | 322° |
| 2026-05-07 15:18 | 35.53538 | 28.83686 | 40142 ft | 433 kts | 322° |
| 2026-05-07 15:19 | 35.58354 | 28.79225 | 40140 ft | 434 kts | 322° |
| 2026-05-07 15:19 | 35.63170 | 28.74758 | 40141 ft | 434 kts | 322° |
| 2026-05-07 15:20 | 35.67985 | 28.70285 | 40140 ft | 434 kts | 322° |
| 2026-05-07 15:20 | 35.72808 | 28.65797 | 40141 ft | 435 kts | 321° |
| 2026-05-07 15:21 | 35.77630 | 28.61304 | 40138 ft | 435 kts | 321° |
| 2026-05-07 15:21 | 35.82453 | 28.56801 | 40139 ft | 434 kts | 321° |
| 2026-05-07 15:22 | 35.87268 | 28.52301 | 40141 ft | 434 kts | 321° |
| 2026-05-07 15:22 | 35.92080 | 28.47795 | 40141 ft | 434 kts | 321° |
| 2026-05-07 15:23 | 35.96890 | 28.43285 | 40138 ft | 434 kts | 321° |
| 2026-05-07 15:23 | 36.01440 | 28.39011 | 40136 ft | 435 kts | 321° |
| 2026-05-07 15:24 | 36.06258 | 28.34473 | 40134 ft | 435 kts | 321° |
| 2026-05-07 15:24 | 36.11073 | 28.29929 | 40134 ft | 435 kts | 321° |
| 2026-05-07 15:25 | 36.15880 | 28.25387 | 40135 ft | 434 kts | 321° |
| 2026-05-07 15:25 | 36.20649 | 28.20872 | 40135 ft | 434 kts | 321° |
| 2026-05-07 15:26 | 36.25453 | 28.16318 | 40139 ft | 434 kts | 321° |
| 2026-05-07 15:26 | 36.30239 | 28.11773 | 40139 ft | 433 kts | 321° |
| 2026-05-07 15:27 | 36.34940 | 28.07115 | 40149 ft | 432 kts | 315° |
| 2026-05-07 15:27 | 36.39345 | 28.02032 | 40137 ft | 433 kts | 316° |
| 2026-05-07 15:28 | 36.43756 | 27.96945 | 40140 ft | 432 kts | 316° |
| 2026-05-07 15:28 | 36.48154 | 27.91855 | 40139 ft | 432 kts | 316° |
| 2026-05-07 15:29 | 36.51812 | 27.87621 | 40136 ft | 432 kts | 316° |
| 2026-05-07 15:29 | 36.56205 | 27.82524 | 40137 ft | 432 kts | 316° |
| 2026-05-07 15:30 | 36.60598 | 27.77421 | 40130 ft | 433 kts | 316° |
| 2026-05-07 15:30 | 36.65001 | 27.72298 | 40137 ft | 432 kts | 316° |
| 2026-05-07 15:31 | 36.69392 | 27.67179 | 40134 ft | 432 kts | 315° |
| 2026-05-07 15:31 | 36.73788 | 27.62047 | 40129 ft | 433 kts | 315° |
| 2026-05-07 15:32 | 36.78184 | 27.56907 | 40130 ft | 432 kts | 315° |
| 2026-05-07 15:32 | 36.82556 | 27.51785 | 40128 ft | 431 kts | 315° |
| 2026-05-07 15:33 | 36.86918 | 27.46667 | 40130 ft | 430 kts | 315° |
| 2026-05-07 15:33 | 36.91279 | 27.41542 | 40129 ft | 431 kts | 315° |
| 2026-05-07 15:34 | 36.95642 | 27.36407 | 40129 ft | 431 kts | 315° |
| 2026-05-07 15:34 | 36.99992 | 27.31276 | 40137 ft | 436 kts | 315° |
| 2026-05-07 15:35 | 37.04454 | 27.26007 | 40141 ft | 444 kts | 315° |
| 2026-05-07 15:35 | 37.08966 | 27.20669 | 40141 ft | 447 kts | 315° |
| 2026-05-07 15:36 | 37.13476 | 27.15325 | 40140 ft | 446 kts | 315° |
| 2026-05-07 15:36 | 37.17987 | 27.09969 | 40141 ft | 446 kts | 315° |
| 2026-05-07 15:37 | 37.22488 | 27.04616 | 40140 ft | 446 kts | 315° |
| 2026-05-07 15:37 | 37.26983 | 26.99262 | 40141 ft | 445 kts | 315° |
| 2026-05-07 15:38 | 37.31471 | 26.93906 | 40140 ft | 445 kts | 315° |
| 2026-05-07 15:38 | 37.35958 | 26.88542 | 40141 ft | 445 kts | 315° |
| 2026-05-07 15:39 | 37.40463 | 26.83209 | 40143 ft | 445 kts | 318° |
| 2026-05-07 15:39 | 37.45169 | 26.78149 | 40135 ft | 445 kts | 317° |
| 2026-05-07 15:40 | 37.49873 | 26.73062 | 40140 ft | 446 kts | 317° |
| 2026-05-07 15:40 | 37.54558 | 26.67998 | 40140 ft | 446 kts | 317° |
| 2026-05-07 15:41 | 37.59267 | 26.62894 | 40141 ft | 447 kts | 317° |
| 2026-05-07 15:41 | 37.63981 | 26.57778 | 40144 ft | 446 kts | 317° |
| 2026-05-07 15:42 | 37.68682 | 26.52666 | 40139 ft | 445 kts | 317° |
| 2026-05-07 15:42 | 37.73374 | 26.47569 | 40141 ft | 445 kts | 317° |
| 2026-05-07 15:43 | 37.78066 | 26.42465 | 40141 ft | 445 kts | 317° |
| 2026-05-07 15:43 | 37.82761 | 26.37347 | 40140 ft | 445 kts | 317° |
| 2026-05-07 15:44 | 37.87451 | 26.32226 | 40140 ft | 445 kts | 317° |
| 2026-05-07 15:44 | 37.92131 | 26.27089 | 40136 ft | 445 kts | 316° |
| 2026-05-07 15:45 | 37.96807 | 26.21952 | 40139 ft | 445 kts | 316° |
| 2026-05-07 15:45 | 38.01449 | 26.16841 | 40139 ft | 445 kts | 316° |
| 2026-05-07 15:46 | 38.08448 | 26.09119 | 40141 ft | 444 kts | 316° |
| 2026-05-07 15:47 | 38.13110 | 26.03961 | 40142 ft | 445 kts | 316° |
| 2026-05-07 15:47 | 38.17781 | 25.98787 | 40138 ft | 445 kts | 316° |
| 2026-05-07 15:48 | 38.22452 | 25.93602 | 40133 ft | 446 kts | 316° |
| 2026-05-07 15:48 | 38.27223 | 25.88542 | 40134 ft | 448 kts | 319° |
| 2026-05-07 15:49 | 38.32137 | 25.83657 | 40134 ft | 447 kts | 319° |
| 2026-05-07 15:49 | 38.37039 | 25.78773 | 40134 ft | 448 kts | 319° |
| 2026-05-07 15:50 | 38.41946 | 25.73879 | 40135 ft | 448 kts | 319° |
| 2026-05-07 15:50 | 38.46860 | 25.68966 | 40135 ft | 449 kts | 319° |
| 2026-05-07 15:51 | 38.51782 | 25.64039 | 40131 ft | 450 kts | 319° |
| 2026-05-07 15:51 | 38.56703 | 25.59102 | 40123 ft | 450 kts | 319° |
| 2026-05-07 15:52 | 38.61627 | 25.54154 | 40121 ft | 450 kts | 319° |
| 2026-05-07 15:52 | 38.66516 | 25.49232 | 40116 ft | 450 kts | 319° |
| 2026-05-07 15:53 | 38.71446 | 25.44260 | 40121 ft | 451 kts | 319° |
| 2026-05-07 15:53 | 38.76379 | 25.39276 | 40127 ft | 451 kts | 318° |
| 2026-05-07 15:54 | 38.81304 | 25.34291 | 40127 ft | 451 kts | 318° |
| 2026-05-07 15:54 | 38.86234 | 25.29293 | 40119 ft | 451 kts | 318° |
| 2026-05-07 15:55 | 38.91160 | 25.24289 | 40127 ft | 452 kts | 318° |
| 2026-05-07 15:55 | 38.96094 | 25.19268 | 40115 ft | 452 kts | 318° |
| 2026-05-07 15:56 | 39.00999 | 25.14266 | 40115 ft | 453 kts | 318° |
| 2026-05-07 15:56 | 39.05937 | 25.09223 | 40126 ft | 453 kts | 318° |
| 2026-05-07 15:57 | 39.10873 | 25.04171 | 40119 ft | 453 kts | 318° |
| 2026-05-07 15:57 | 39.15810 | 24.99110 | 40115 ft | 454 kts | 318° |
| 2026-05-07 15:58 | 39.20751 | 24.94036 | 40120 ft | 455 kts | 318° |
| 2026-05-07 15:58 | 39.25695 | 24.88949 | 40116 ft | 454 kts | 318° |
| 2026-05-07 15:59 | 39.30637 | 24.83853 | 40111 ft | 454 kts | 318° |
| 2026-05-07 15:59 | 39.35544 | 24.78786 | 40116 ft | 454 kts | 318° |
| 2026-05-07 16:00 | 39.40478 | 24.73680 | 40114 ft | 455 kts | 318° |
| 2026-05-07 16:00 | 39.45414 | 24.68563 | 40117 ft | 454 kts | 318° |
| 2026-05-07 16:01 | 39.50345 | 24.63442 | 40108 ft | 454 kts | 318° |
| 2026-05-07 16:01 | 39.55276 | 24.58310 | 40111 ft | 454 kts | 317° |
| 2026-05-07 16:02 | 39.60204 | 24.53174 | 40108 ft | 455 kts | 317° |
| 2026-05-07 16:02 | 39.65143 | 24.48014 | 40115 ft | 456 kts | 317° |
| 2026-05-07 16:03 | 39.70058 | 24.42872 | 40111 ft | 457 kts | 317° |
| 2026-05-07 16:03 | 39.75007 | 24.37682 | 40108 ft | 458 kts | 317° |
| 2026-05-07 16:04 | 39.79965 | 24.32475 | 40115 ft | 458 kts | 317° |
| 2026-05-07 16:04 | 39.84918 | 24.27261 | 40112 ft | 458 kts | 317° |
| 2026-05-07 16:05 | 39.89880 | 24.22029 | 40112 ft | 459 kts | 317° |
| 2026-05-07 16:05 | 39.94849 | 24.16779 | 40112 ft | 460 kts | 317° |
| 2026-05-07 16:06 | 39.99818 | 24.11519 | 40112 ft | 460 kts | 317° |
| 2026-05-07 16:06 | 40.04782 | 24.06254 | 40107 ft | 461 kts | 317° |
| 2026-05-07 16:07 | 40.09757 | 24.00968 | 40113 ft | 462 kts | 317° |
| 2026-05-07 16:07 | 40.14707 | 23.95698 | 40110 ft | 461 kts | 317° |
| 2026-05-07 16:08 | 40.19681 | 23.90391 | 40117 ft | 462 kts | 317° |
| 2026-05-07 16:08 | 40.24660 | 23.85069 | 40118 ft | 463 kts | 317° |
| 2026-05-07 16:09 | 40.29648 | 23.79728 | 40123 ft | 462 kts | 317° |
| 2026-05-07 16:09 | 40.34631 | 23.74380 | 40118 ft | 463 kts | 317° |
| 2026-05-07 16:10 | 40.39590 | 23.69048 | 40122 ft | 464 kts | 317° |
| 2026-05-07 16:10 | 40.44583 | 23.63669 | 40128 ft | 464 kts | 317° |
| 2026-05-07 16:11 | 40.49575 | 23.58280 | 40107 ft | 464 kts | 317° |
| 2026-05-07 16:11 | 40.54560 | 23.52888 | 40119 ft | 464 kts | 317° |
| 2026-05-07 16:12 | 40.59538 | 23.47493 | 40118 ft | 463 kts | 317° |
| 2026-05-07 16:12 | 40.64509 | 23.42094 | 40126 ft | 464 kts | 317° |
| 2026-05-07 16:13 | 40.69478 | 23.36689 | 40130 ft | 464 kts | 317° |
| 2026-05-07 16:13 | 40.74454 | 23.31263 | 40128 ft | 465 kts | 317° |
| 2026-05-07 16:14 | 40.79443 | 23.25813 | 40133 ft | 466 kts | 317° |
| 2026-05-07 16:14 | 40.84426 | 23.20358 | 40132 ft | 466 kts | 317° |
| 2026-05-07 16:15 | 40.89417 | 23.14883 | 40140 ft | 467 kts | 317° |
| 2026-05-07 16:15 | 40.94383 | 23.09425 | 40140 ft | 467 kts | 317° |
| 2026-05-07 16:16 | 40.99376 | 23.03926 | 40142 ft | 467 kts | 317° |
| 2026-05-07 16:16 | 41.04377 | 22.98407 | 40141 ft | 468 kts | 317° |
| 2026-05-07 16:17 | 41.09379 | 22.92875 | 40145 ft | 469 kts | 317° |
| 2026-05-07 16:17 | 41.14384 | 22.87329 | 40142 ft | 468 kts | 317° |
| 2026-05-07 16:18 | 41.19148 | 22.82038 | 40140 ft | 468 kts | 317° |
| 2026-05-07 16:18 | 41.24246 | 22.76343 | 40146 ft | 467 kts | 314° |
| 2026-05-07 16:19 | 41.28673 | 22.70066 | 40140 ft | 465 kts | 309° |
| 2026-05-07 16:19 | 41.33036 | 22.63688 | 40136 ft | 466 kts | 309° |
| 2026-05-07 16:20 | 41.37390 | 22.57304 | 40139 ft | 466 kts | 309° |
| 2026-05-07 16:20 | 41.41740 | 22.50915 | 40140 ft | 465 kts | 309° |
| 2026-05-07 16:21 | 41.45348 | 22.45604 | 40138 ft | 465 kts | 309° |
| 2026-05-07 16:21 | 41.49689 | 22.39201 | 40125 ft | 465 kts | 309° |
| 2026-05-07 16:22 | 41.54029 | 22.32787 | 40125 ft | 465 kts | 309° |
| 2026-05-07 16:22 | 41.58359 | 22.26373 | 40124 ft | 465 kts | 309° |
| 2026-05-07 16:23 | 41.62690 | 22.19944 | 40116 ft | 465 kts | 309° |
| 2026-05-07 16:23 | 41.67016 | 22.13509 | 40117 ft | 465 kts | 309° |
| 2026-05-07 16:24 | 41.71336 | 22.07067 | 40111 ft | 465 kts | 309° |
| 2026-05-07 16:24 | 41.75665 | 22.00599 | 40111 ft | 466 kts | 309° |
| 2026-05-07 16:25 | 41.79993 | 21.94117 | 40108 ft | 467 kts | 309° |
| 2026-05-07 16:25 | 41.84320 | 21.87624 | 40111 ft | 467 kts | 309° |
| 2026-05-07 16:26 | 41.88648 | 21.81115 | 40111 ft | 467 kts | 309° |
| 2026-05-07 16:26 | 41.92946 | 21.74637 | 40112 ft | 468 kts | 309° |
| 2026-05-07 16:27 | 41.97273 | 21.68099 | 40113 ft | 468 kts | 309° |
| 2026-05-07 16:27 | 42.01593 | 21.61559 | 40111 ft | 468 kts | 309° |
| 2026-05-07 16:28 | 42.05912 | 21.55005 | 40109 ft | 468 kts | 309° |
| 2026-05-07 16:28 | 42.10232 | 21.48434 | 40112 ft | 469 kts | 309° |
| 2026-05-07 16:29 | 42.14554 | 21.41849 | 40108 ft | 468 kts | 308° |
| 2026-05-07 16:29 | 42.18825 | 21.35224 | 40110 ft | 468 kts | 307° |
| 2026-05-07 16:30 | 42.23011 | 21.28501 | 40112 ft | 468 kts | 308° |